sensor_id;sensor_type;location;lat;lon;timestamp;pressure;altitude;pressure_sealevel;temperature;humidity
55994;BME280;67425;52.126;20.638;2023-02-20T00:00:32;57678.34;;;-144.78;67.27
55994;BME280;67425;52.126;20.638;2023-02-20T00:02:57;57692.88;;;-144.78;68.28
55994;BME280;67425;52.126;20.638;2023-02-20T00:05:23;57663.78;;;-144.78;67.68
55994;BME280;67425;52.126;20.638;2023-02-20T00:07:48;57663.78;;;-144.78;68.03
55994;BME280;67425;52.126;20.638;2023-02-20T00:10:15;57667.94;;;-144.78;68.60
55994;BME280;67425;52.126;20.638;2023-02-20T00:12:41;57657.56;;;-144.78;67.93
55994;BME280;67425;52.126;20.638;2023-02-20T00:15:07;57686.63;;;-144.78;68.08
55994;BME280;67425;52.126;20.638;2023-02-20T00:17:32;57676.25;;;-144.78;68.16
55994;BME280;67425;52.126;20.638;2023-02-20T00:19:58;57657.56;;;-144.78;66.24
55994;BME280;67425;52.126;20.638;2023-02-20T00:22:25;57667.94;;;-144.78;65.87
55994;BME280;67425;52.126;20.638;2023-02-20T00:24:50;57663.78;;;-144.78;66.50
55994;BME280;67425;52.126;20.638;2023-02-20T00:27:16;57667.94;;;-144.78;67.06
55994;BME280;67425;52.126;20.638;2023-02-20T00:29:45;57680.41;;;-144.78;67.57
55994;BME280;67425;52.126;20.638;2023-02-20T00:32:11;57686.63;;;-144.78;66.90
55994;BME280;67425;52.126;20.638;2023-02-20T00:34:37;57661.72;;;-144.78;67.13
55994;BME280;67425;52.126;20.638;2023-02-20T00:37:03;57649.25;;;-144.78;66.19
55994;BME280;67425;52.126;20.638;2023-02-20T00:39:30;57626.41;;;-144.78;66.95
55994;BME280;67425;52.126;20.638;2023-02-20T00:41:56;57655.50;;;-144.78;66.77
55994;BME280;67425;52.126;20.638;2023-02-20T00:44:22;57676.25;;;-144.78;66.90
55994;BME280;67425;52.126;20.638;2023-02-20T00:46:47;57678.34;;;-144.78;67.49
55994;BME280;67425;52.126;20.638;2023-02-20T00:49:12;57663.78;;;-144.78;66.65
55994;BME280;67425;52.126;20.638;2023-02-20T00:51:38;57663.78;;;-144.78;66.05
55994;BME280;67425;52.126;20.638;2023-02-20T00:54:03;57653.41;;;-144.78;66.11
55994;BME280;67425;52.126;20.638;2023-02-20T00:56:29;57653.41;;;-144.78;66.78
55994;BME280;67425;52.126;20.638;2023-02-20T00:58:54;57616.03;;;-144.78;65.06
55994;BME280;67425;52.126;20.638;2023-02-20T01:01:20;57670.03;;;-144.78;65.36
55994;BME280;67425;52.126;20.638;2023-02-20T01:03:46;57680.41;;;-144.78;66.43
55994;BME280;67425;52.126;20.638;2023-02-20T01:06:11;57636.78;;;-144.78;65.93
55994;BME280;67425;52.126;20.638;2023-02-20T01:08:37;57636.78;;;-144.78;65.56
55994;BME280;67425;52.126;20.638;2023-02-20T01:11:02;57647.19;;;-144.78;65.54
55994;BME280;67425;52.126;20.638;2023-02-20T01:13:27;57663.78;;;-144.78;66.15
55994;BME280;67425;52.126;20.638;2023-02-20T01:15:53;57672.09;;;-144.78;66.15
55994;BME280;67425;52.126;20.638;2023-02-20T01:18:18;57678.34;;;-144.78;68.12
55994;BME280;67425;52.126;20.638;2023-02-20T01:20:43;57657.56;;;-144.78;66.88
55994;BME280;67425;52.126;20.638;2023-02-20T01:23:09;57645.09;;;-144.78;67.65
55994;BME280;67425;52.126;20.638;2023-02-20T01:25:34;57676.25;;;-144.78;67.83
55994;BME280;67425;52.126;20.638;2023-02-20T01:27:59;57682.50;;;-144.78;67.94
55994;BME280;67425;52.126;20.638;2023-02-20T01:30:25;57682.50;;;-144.78;68.76
55994;BME280;67425;52.126;20.638;2023-02-20T01:32:50;57676.25;;;-144.78;68.66
55994;BME280;67425;52.126;20.638;2023-02-20T01:35:16;57665.88;;;-144.78;68.04
55994;BME280;67425;52.126;20.638;2023-02-20T01:37:42;57667.94;;;-144.78;67.03
55994;BME280;67425;52.126;20.638;2023-02-20T01:40:13;57643.03;;;-144.78;66.82
55994;BME280;67425;52.126;20.638;2023-02-20T01:42:39;57670.03;;;-144.78;66.73
55994;BME280;67425;52.126;20.638;2023-02-20T01:47:50;57626.41;;;-144.78;65.43
55994;BME280;67425;52.126;20.638;2023-02-20T01:50:17;57653.41;;;-144.78;67.49
55994;BME280;67425;52.126;20.638;2023-02-20T01:52:47;57653.41;;;-144.78;67.53
55994;BME280;67425;52.126;20.638;2023-02-20T01:55:23;57649.25;;;-144.78;67.75
55994;BME280;67425;52.126;20.638;2023-02-20T01:57:53;57670.03;;;-144.78;67.64
55994;BME280;67425;52.126;20.638;2023-02-20T02:00:21;57657.56;;;-144.78;67.33
55994;BME280;67425;52.126;20.638;2023-02-20T02:02:54;57645.09;;;-144.78;67.02
55994;BME280;67425;52.126;20.638;2023-02-20T02:05:21;57661.72;;;-144.78;67.26
55994;BME280;67425;52.126;20.638;2023-02-20T02:07:47;57655.50;;;-144.78;67.66
55994;BME280;67425;52.126;20.638;2023-02-20T02:10:16;57651.34;;;-144.78;67.42
55994;BME280;67425;52.126;20.638;2023-02-20T02:12:46;57665.88;;;-144.78;66.94
55994;BME280;67425;52.126;20.638;2023-02-20T02:15:14;57640.94;;;-144.78;66.46
55994;BME280;67425;52.126;20.638;2023-02-20T02:40:06;57647.19;;;-144.78;65.65
55994;BME280;67425;52.126;20.638;2023-02-20T02:42:46;57649.25;;;-144.78;65.15
55994;BME280;67425;52.126;20.638;2023-02-20T02:45:21;57624.34;;;-144.78;64.80
55994;BME280;67425;52.126;20.638;2023-02-20T02:47:58;57634.72;;;-144.78;64.29
55994;BME280;67425;52.126;20.638;2023-02-20T02:50:36;57649.25;;;-144.78;65.83
55994;BME280;67425;52.126;20.638;2023-02-20T02:53:06;57618.09;;;-144.78;65.06
55994;BME280;67425;52.126;20.638;2023-02-20T02:55:32;57616.03;;;-144.78;64.27
55994;BME280;67425;52.126;20.638;2023-02-20T02:57:58;57655.50;;;-144.78;65.92
55994;BME280;67425;52.126;20.638;2023-02-20T03:03:10;57636.78;;;-144.78;65.44
55994;BME280;67425;52.126;20.638;2023-02-20T03:05:41;57636.78;;;-144.78;64.78
55994;BME280;67425;52.126;20.638;2023-02-20T03:11:00;57667.94;;;-144.78;65.46
55994;BME280;67425;52.126;20.638;2023-02-20T03:13:28;57638.88;;;-144.78;65.35
55994;BME280;67425;52.126;20.638;2023-02-20T03:16:15;57643.03;;;-144.78;65.74
55994;BME280;67425;52.126;20.638;2023-02-20T03:18:44;57605.66;;;-144.78;65.58
55994;BME280;67425;52.126;20.638;2023-02-20T03:21:16;57647.19;;;-144.78;65.93
55994;BME280;67425;52.126;20.638;2023-02-20T03:23:47;57659.63;;;-144.78;66.61
55994;BME280;67425;52.126;20.638;2023-02-20T03:26:16;57645.09;;;-144.78;65.30
55994;BME280;67425;52.126;20.638;2023-02-20T03:28:50;57653.41;;;-144.78;66.81
55994;BME280;67425;52.126;20.638;2023-02-20T03:31:30;57649.25;;;-144.78;67.88
55994;BME280;67425;52.126;20.638;2023-02-20T03:34:15;57663.78;;;-144.78;67.27
55994;BME280;67425;52.126;20.638;2023-02-20T03:37:02;57640.94;;;-144.78;66.72
55994;BME280;67425;52.126;20.638;2023-02-20T03:39:52;57667.94;;;-144.78;66.77
55994;BME280;67425;52.126;20.638;2023-02-20T03:42:39;57655.50;;;-144.78;66.66
55994;BME280;67425;52.126;20.638;2023-02-20T03:45:25;57640.94;;;-144.78;66.56
55994;BME280;67425;52.126;20.638;2023-02-20T03:47:58;57636.78;;;-144.78;66.50
55994;BME280;67425;52.126;20.638;2023-02-20T03:50:24;57630.56;;;-144.78;66.35
55994;BME280;67425;52.126;20.638;2023-02-20T03:52:50;57634.72;;;-144.78;66.53
55994;BME280;67425;52.126;20.638;2023-02-20T03:55:16;57665.88;;;-144.78;67.08
55994;BME280;67425;52.126;20.638;2023-02-20T03:57:44;57645.09;;;-144.78;67.07
55994;BME280;67425;52.126;20.638;2023-02-20T04:00:16;57665.88;;;-144.78;67.26
55994;BME280;67425;52.126;20.638;2023-02-20T04:02:45;57655.50;;;-144.78;67.04
55994;BME280;67425;52.126;20.638;2023-02-20T04:05:17;57680.41;;;-144.78;67.38
55994;BME280;67425;52.126;20.638;2023-02-20T04:07:52;57655.50;;;-144.78;67.63
55994;BME280;67425;52.126;20.638;2023-02-20T04:10:29;57634.72;;;-144.78;67.13
55994;BME280;67425;52.126;20.638;2023-02-20T04:12:56;57655.50;;;-144.78;66.97
55994;BME280;67425;52.126;20.638;2023-02-20T04:15:23;57622.25;;;-144.78;66.70
55994;BME280;67425;52.126;20.638;2023-02-20T04:17:54;57632.66;;;-144.78;67.14
55994;BME280;67425;52.126;20.638;2023-02-20T04:20:22;57647.19;;;-144.78;67.21
55994;BME280;67425;52.126;20.638;2023-02-20T04:22:48;57645.09;;;-144.78;67.09
55994;BME280;67425;52.126;20.638;2023-02-20T04:25:38;57645.09;;;-144.78;67.98
55994;BME280;67425;52.126;20.638;2023-02-20T04:28:06;57665.88;;;-144.78;68.98
55994;BME280;67425;52.126;20.638;2023-02-20T04:30:32;57618.09;;;-144.78;68.06
55994;BME280;67425;52.126;20.638;2023-02-20T04:32:57;57653.41;;;-144.78;67.57
55994;BME280;67425;52.126;20.638;2023-02-20T04:35:23;57634.72;;;-144.78;67.23
55994;BME280;67425;52.126;20.638;2023-02-20T04:37:48;57630.56;;;-144.78;67.46
55994;BME280;67425;52.126;20.638;2023-02-20T04:40:18;57643.03;;;-144.78;67.16
55994;BME280;67425;52.126;20.638;2023-02-20T04:42:44;57645.09;;;-144.78;67.88
55994;BME280;67425;52.126;20.638;2023-02-20T04:45:09;57626.41;;;-144.78;67.52
55994;BME280;67425;52.126;20.638;2023-02-20T04:47:34;57628.50;;;-144.78;66.95
55994;BME280;67425;52.126;20.638;2023-02-20T04:50:00;57622.25;;;-144.78;66.94
55994;BME280;67425;52.126;20.638;2023-02-20T04:52:25;57630.56;;;-144.78;67.09
55994;BME280;67425;52.126;20.638;2023-02-20T04:54:51;57638.88;;;-144.78;67.86
55994;BME280;67425;52.126;20.638;2023-02-20T04:57:17;57630.56;;;-144.78;68.45
55994;BME280;67425;52.126;20.638;2023-02-20T04:59:43;57636.78;;;-144.78;67.83
55994;BME280;67425;52.126;20.638;2023-02-20T05:02:08;57661.72;;;-144.78;68.39
55994;BME280;67425;52.126;20.638;2023-02-20T05:04:34;57628.50;;;-144.78;68.76
55994;BME280;67425;52.126;20.638;2023-02-20T05:06:59;57636.78;;;-144.78;68.49
55994;BME280;67425;52.126;20.638;2023-02-20T05:09:25;57649.25;;;-144.78;68.45
55994;BME280;67425;52.126;20.638;2023-02-20T05:11:51;57616.03;;;-144.78;68.37
55994;BME280;67425;52.126;20.638;2023-02-20T05:14:17;57649.25;;;-144.78;68.99
55994;BME280;67425;52.126;20.638;2023-02-20T05:16:42;57659.63;;;-144.78;68.54
55994;BME280;67425;52.126;20.638;2023-02-20T05:19:10;57618.09;;;-144.78;69.22
55994;BME280;67425;52.126;20.638;2023-02-20T05:21:36;57647.19;;;-144.78;68.94
55994;BME280;67425;52.126;20.638;2023-02-20T05:24:20;57620.19;;;-144.78;68.55
55994;BME280;67425;52.126;20.638;2023-02-20T05:26:45;57632.66;;;-144.78;68.64
55994;BME280;67425;52.126;20.638;2023-02-20T05:29:11;57649.25;;;-144.78;69.46
55994;BME280;67425;52.126;20.638;2023-02-20T05:31:38;57657.56;;;-144.78;69.97
55994;BME280;67425;52.126;20.638;2023-02-20T05:34:36;57624.34;;;-144.78;69.66
55994;BME280;67425;52.126;20.638;2023-02-20T05:37:01;57636.78;;;-144.78;69.37
55994;BME280;67425;52.126;20.638;2023-02-20T05:39:27;57626.41;;;-144.78;68.41
55994;BME280;67425;52.126;20.638;2023-02-20T05:41:52;57657.56;;;-144.78;69.66
55994;BME280;67425;52.126;20.638;2023-02-20T05:44:17;57632.66;;;-144.78;69.17
55994;BME280;67425;52.126;20.638;2023-02-20T05:46:43;57636.78;;;-144.78;70.11
55994;BME280;67425;52.126;20.638;2023-02-20T05:49:09;57649.25;;;-144.78;69.43
55994;BME280;67425;52.126;20.638;2023-02-20T05:51:34;57638.88;;;-144.78;69.52
55994;BME280;67425;52.126;20.638;2023-02-20T05:53:59;57630.56;;;-144.78;69.52
55994;BME280;67425;52.126;20.638;2023-02-20T05:56:25;57634.72;;;-144.78;69.55
55994;BME280;67425;52.126;20.638;2023-02-20T05:58:50;57613.94;;;-144.78;70.12
55994;BME280;67425;52.126;20.638;2023-02-20T06:01:24;57630.56;;;-144.78;69.27
55994;BME280;67425;52.126;20.638;2023-02-20T06:03:50;57613.94;;;-144.78;68.65
55994;BME280;67425;52.126;20.638;2023-02-20T06:06:16;57626.41;;;-144.78;68.39
55994;BME280;67425;52.126;20.638;2023-02-20T06:08:42;57630.56;;;-144.78;68.93
55994;BME280;67425;52.126;20.638;2023-02-20T06:11:09;57643.03;;;-144.78;69.57
55994;BME280;67425;52.126;20.638;2023-02-20T06:13:35;57630.56;;;-144.78;68.19
55994;BME280;67425;52.126;20.638;2023-02-20T06:16:00;57622.25;;;-144.78;67.58
55994;BME280;67425;52.126;20.638;2023-02-20T06:18:26;57603.56;;;-144.78;67.89
55994;BME280;67425;52.126;20.638;2023-02-20T06:20:51;57584.88;;;-144.78;67.75
55994;BME280;67425;52.126;20.638;2023-02-20T06:23:16;57591.09;;;-144.78;67.72
55994;BME280;67425;52.126;20.638;2023-02-20T06:25:42;57603.56;;;-144.78;68.14
55994;BME280;67425;52.126;20.638;2023-02-20T06:28:07;57603.56;;;-144.78;67.73
55994;BME280;67425;52.126;20.638;2023-02-20T06:30:32;57566.19;;;-144.78;67.69
55994;BME280;67425;52.126;20.638;2023-02-20T06:32:58;57582.81;;;-144.78;66.87
55994;BME280;67425;52.126;20.638;2023-02-20T06:35:23;57586.94;;;-144.78;67.22
55994;BME280;67425;52.126;20.638;2023-02-20T06:37:48;57570.34;;;-144.78;66.38
55994;BME280;67425;52.126;20.638;2023-02-20T06:40:14;57589.03;;;-144.78;66.53
55994;BME280;67425;52.126;20.638;2023-02-20T06:42:39;57595.25;;;-144.78;66.39
55994;BME280;67425;52.126;20.638;2023-02-20T06:45:05;57589.03;;;-144.78;66.93
55994;BME280;67425;52.126;20.638;2023-02-20T06:47:30;57570.34;;;-144.78;66.66
55994;BME280;67425;52.126;20.638;2023-02-20T06:49:56;57605.66;;;-144.78;67.85
55994;BME280;67425;52.126;20.638;2023-02-20T06:52:22;57578.66;;;-144.78;67.60
55994;BME280;67425;52.126;20.638;2023-02-20T06:54:47;57591.09;;;-144.78;67.24
55994;BME280;67425;52.126;20.638;2023-02-20T06:57:12;57568.25;;;-144.78;67.10
55994;BME280;67425;52.126;20.638;2023-02-20T06:59:38;57605.66;;;-144.78;66.62
55994;BME280;67425;52.126;20.638;2023-02-20T07:02:11;57580.72;;;-144.78;67.27
55994;BME280;67425;52.126;20.638;2023-02-20T07:04:36;57580.72;;;-144.78;66.73
55994;BME280;67425;52.126;20.638;2023-02-20T07:07:02;57557.88;;;-144.78;65.61
55994;BME280;67425;52.126;20.638;2023-02-20T07:09:28;57543.34;;;-144.78;65.56
55994;BME280;67425;52.126;20.638;2023-02-20T07:11:53;57539.19;;;-144.78;65.15
55994;BME280;67425;52.126;20.638;2023-02-20T07:14:19;57530.88;;;-144.78;64.85
55994;BME280;67425;52.126;20.638;2023-02-20T07:16:44;57557.88;;;-144.78;65.62
55994;BME280;67425;52.126;20.638;2023-02-20T07:19:10;57547.50;;;-144.78;65.12
55994;BME280;67425;52.126;20.638;2023-02-20T07:21:36;57570.34;;;-144.78;65.26
55994;BME280;67425;52.126;20.638;2023-02-20T07:24:01;57559.97;;;-144.78;65.97
55994;BME280;67425;52.126;20.638;2023-02-20T07:26:28;57574.50;;;-144.78;66.75
55994;BME280;67425;52.126;20.638;2023-02-20T07:28:55;57584.88;;;-144.78;67.16
55994;BME280;67425;52.126;20.638;2023-02-20T07:31:23;57576.56;;;-144.78;67.12
55994;BME280;67425;52.126;20.638;2023-02-20T07:33:49;57551.66;;;-144.78;66.22
55994;BME280;67425;52.126;20.638;2023-02-20T07:36:15;57557.88;;;-144.78;66.73
55994;BME280;67425;52.126;20.638;2023-02-20T07:38:41;57547.50;;;-144.78;66.20
55994;BME280;67425;52.126;20.638;2023-02-20T07:41:06;57524.66;;;-144.78;65.12
55994;BME280;67425;52.126;20.638;2023-02-20T07:43:32;57559.97;;;-144.78;66.20
55994;BME280;67425;52.126;20.638;2023-02-20T07:45:58;57549.56;;;-144.78;65.25
55994;BME280;67425;52.126;20.638;2023-02-20T07:48:23;57524.66;;;-144.78;65.43
55994;BME280;67425;52.126;20.638;2023-02-20T07:50:49;57528.81;;;-144.78;64.21
55994;BME280;67425;52.126;20.638;2023-02-20T07:53:17;57535.03;;;-144.78;65.22
55994;BME280;67425;52.126;20.638;2023-02-20T07:55:42;57518.41;;;-144.78;65.61
55994;BME280;67425;52.126;20.638;2023-02-20T07:58:08;57518.41;;;-144.78;65.49
55994;BME280;67425;52.126;20.638;2023-02-20T08:00:34;57532.97;;;-144.78;66.70
55994;BME280;67425;52.126;20.638;2023-02-20T08:03:00;57512.19;;;-144.78;65.72
55994;BME280;67425;52.126;20.638;2023-02-20T08:05:26;57530.88;;;-144.78;65.78
55994;BME280;67425;52.126;20.638;2023-02-20T08:07:52;57526.72;;;-144.78;65.15
55994;BME280;67425;52.126;20.638;2023-02-20T08:10:21;57522.56;;;-144.78;65.21
55994;BME280;67425;52.126;20.638;2023-02-20T08:12:48;57524.66;;;-144.78;65.37
55994;BME280;67425;52.126;20.638;2023-02-20T08:15:13;57518.41;;;-144.78;64.14
55994;BME280;67425;52.126;20.638;2023-02-20T08:17:39;57528.81;;;-144.78;65.30
55994;BME280;67425;52.126;20.638;2023-02-20T08:20:06;57522.56;;;-144.78;64.86
55994;BME280;67425;52.126;20.638;2023-02-20T08:22:33;57535.03;;;-144.78;65.76
55994;BME280;67425;52.126;20.638;2023-02-20T08:24:59;57512.19;;;-144.78;65.50
55994;BME280;67425;52.126;20.638;2023-02-20T08:27:25;57545.41;;;-144.78;67.70
55994;BME280;67425;52.126;20.638;2023-02-20T08:29:51;57574.50;;;-144.78;70.91
55994;BME280;67425;52.126;20.638;2023-02-20T08:32:17;57572.41;;;-144.78;72.82
55994;BME280;67425;52.126;20.638;2023-02-20T08:34:42;57605.66;;;-144.78;72.59
55994;BME280;67425;52.126;20.638;2023-02-20T08:37:08;57576.56;;;-144.78;73.29
55994;BME280;67425;52.126;20.638;2023-02-20T08:39:34;57568.25;;;-144.78;73.25
55994;BME280;67425;52.126;20.638;2023-02-20T08:42:00;57576.56;;;-144.78;73.71
55994;BME280;67425;52.126;20.638;2023-02-20T08:44:25;57574.50;;;-144.78;73.99
55994;BME280;67425;52.126;20.638;2023-02-20T08:46:51;57568.25;;;-144.78;74.27
55994;BME280;67425;52.126;20.638;2023-02-20T08:49:17;57557.88;;;-144.78;73.53
55994;BME280;67425;52.126;20.638;2023-02-20T08:51:52;57566.19;;;-144.78;73.99
55994;BME280;67425;52.126;20.638;2023-02-20T08:54:18;57570.34;;;-144.78;74.54
55994;BME280;67425;52.126;20.638;2023-02-20T08:56:43;57568.25;;;-144.78;74.57
55994;BME280;67425;52.126;20.638;2023-02-20T08:59:08;57584.88;;;-144.78;76.08
55994;BME280;67425;52.126;20.638;2023-02-20T09:01:34;57578.66;;;-144.78;75.76
55994;BME280;67425;52.126;20.638;2023-02-20T09:04:00;57584.88;;;-144.78;76.87
55994;BME280;67425;52.126;20.638;2023-02-20T09:06:26;57568.25;;;-144.78;77.87
55994;BME280;67425;52.126;20.638;2023-02-20T09:08:53;57599.41;;;-144.78;78.84
55994;BME280;67425;52.126;20.638;2023-02-20T09:11:18;57593.19;;;-144.78;77.65
55994;BME280;67425;52.126;20.638;2023-02-20T09:13:45;57591.09;;;-144.78;78.36
55994;BME280;67425;52.126;20.638;2023-02-20T09:16:17;57591.09;;;-144.78;78.54
55994;BME280;67425;52.126;20.638;2023-02-20T09:18:44;57611.88;;;-144.78;79.93
55994;BME280;67425;52.126;20.638;2023-02-20T09:21:11;57589.03;;;-144.78;79.64
55994;BME280;67425;52.126;20.638;2023-02-20T09:23:37;57601.50;;;-144.78;78.54
55994;BME280;67425;52.126;20.638;2023-02-20T09:26:03;57609.78;;;-144.78;81.68
55994;BME280;67425;52.126;20.638;2023-02-20T09:28:29;57622.25;;;-144.78;81.71
55994;BME280;67425;52.126;20.638;2023-02-20T09:30:54;57613.94;;;-144.78;81.05
55994;BME280;67425;52.126;20.638;2023-02-20T09:33:22;57613.94;;;-144.78;81.15
55994;BME280;67425;52.126;20.638;2023-02-20T09:35:47;57599.41;;;-144.78;80.24
55994;BME280;67425;52.126;20.638;2023-02-20T09:38:14;57589.03;;;-144.78;81.21
55994;BME280;67425;52.126;20.638;2023-02-20T09:40:40;57572.41;;;-144.78;79.96
55994;BME280;67425;52.126;20.638;2023-02-20T09:46:14;57613.94;;;-144.78;80.74
55994;BME280;67425;52.126;20.638;2023-02-20T09:51:33;57589.03;;;-144.78;81.49
55994;BME280;67425;52.126;20.638;2023-02-20T09:54:12;57607.72;;;-144.78;81.51
55994;BME280;67425;52.126;20.638;2023-02-20T09:56:48;57576.56;;;-144.78;80.46
55994;BME280;67425;52.126;20.638;2023-02-20T10:01:45;57593.19;;;-144.78;80.82
55994;BME280;67425;52.126;20.638;2023-02-20T10:04:20;57613.94;;;-144.78;81.08
55994;BME280;67425;52.126;20.638;2023-02-20T10:06:49;57568.25;;;-144.78;78.94
55994;BME280;67425;52.126;20.638;2023-02-20T10:09:15;57559.97;;;-144.78;78.58
55994;BME280;67425;52.126;20.638;2023-02-20T10:14:36;57605.66;;;-144.78;82.05
55994;BME280;67425;52.126;20.638;2023-02-20T10:17:17;57607.72;;;-144.78;83.00
55994;BME280;67425;52.126;20.638;2023-02-20T10:22:33;57613.94;;;-144.78;83.73
55994;BME280;67425;52.126;20.638;2023-02-20T10:25:08;57601.50;;;-144.78;81.76
55994;BME280;67425;52.126;20.638;2023-02-20T10:30:19;57618.09;;;-144.78;83.22
55994;BME280;67425;52.126;20.638;2023-02-20T10:32:55;57609.78;;;-144.78;82.09
55994;BME280;67425;52.126;20.638;2023-02-20T10:35:36;57605.66;;;-144.78;81.55
55994;BME280;67425;52.126;20.638;2023-02-20T10:38:08;57636.78;;;-144.78;83.56
55994;BME280;67425;52.126;20.638;2023-02-20T10:41:08;57624.34;;;-144.78;84.12
55994;BME280;67425;52.126;20.638;2023-02-20T10:46:49;57611.88;;;-144.78;83.43
55994;BME280;67425;52.126;20.638;2023-02-20T10:52:09;57611.88;;;-144.78;83.15
55994;BME280;67425;52.126;20.638;2023-02-20T10:54:41;57616.03;;;-144.78;84.31
55994;BME280;67425;52.126;20.638;2023-02-20T10:57:19;57613.94;;;-144.78;82.71
55994;BME280;67425;52.126;20.638;2023-02-20T11:02:32;57605.66;;;-144.78;80.13
55994;BME280;67425;52.126;20.638;2023-02-20T11:05:06;57576.56;;;-144.78;80.50
55994;BME280;67425;52.126;20.638;2023-02-20T11:07:32;57618.09;;;-144.78;82.20
55994;BME280;67425;52.126;20.638;2023-02-20T11:09:58;57603.56;;;-144.78;82.33
55994;BME280;67425;52.126;20.638;2023-02-20T11:12:31;57605.66;;;-144.78;82.48
55994;BME280;67425;52.126;20.638;2023-02-20T11:15:13;57603.56;;;-144.78;82.13
55994;BME280;67425;52.126;20.638;2023-02-20T11:17:39;57603.56;;;-144.78;82.60
55994;BME280;67425;52.126;20.638;2023-02-20T11:20:07;57603.56;;;-144.78;82.62
55994;BME280;67425;52.126;20.638;2023-02-20T11:22:51;57640.94;;;-144.78;87.43
55994;BME280;67425;52.126;20.638;2023-02-20T11:25:17;57622.25;;;-144.78;85.28
55994;BME280;67425;52.126;20.638;2023-02-20T11:27:56;57613.94;;;-144.78;84.06
55994;BME280;67425;52.126;20.638;2023-02-20T11:33:18;57589.03;;;-144.78;84.29
55994;BME280;67425;52.126;20.638;2023-02-20T11:35:45;57601.50;;;-144.78;85.53
55994;BME280;67425;52.126;20.638;2023-02-20T11:43:21;57591.09;;;-144.78;83.91
55994;BME280;67425;52.126;20.638;2023-02-20T11:45:49;57589.03;;;-144.78;84.09
55994;BME280;67425;52.126;20.638;2023-02-20T11:48:19;57578.66;;;-144.78;83.31
55994;BME280;67425;52.126;20.638;2023-02-20T11:50:46;57601.50;;;-144.78;84.58
55994;BME280;67425;52.126;20.638;2023-02-20T11:53:24;57589.03;;;-144.78;83.92
55994;BME280;67425;52.126;20.638;2023-02-20T11:56:13;57601.50;;;-144.78;84.04
55994;BME280;67425;52.126;20.638;2023-02-20T11:58:39;57591.09;;;-144.78;84.39
55994;BME280;67425;52.126;20.638;2023-02-20T12:01:06;57580.72;;;-144.78;83.75
55994;BME280;67425;52.126;20.638;2023-02-20T12:03:34;57580.72;;;-144.78;83.21
55994;BME280;67425;52.126;20.638;2023-02-20T12:06:52;57557.88;;;-144.78;82.96
55994;BME280;67425;52.126;20.638;2023-02-20T12:09:16;57603.56;;;-144.78;84.26
55994;BME280;67425;52.126;20.638;2023-02-20T12:11:43;57559.97;;;-144.78;84.44
55994;BME280;67425;52.126;20.638;2023-02-20T12:14:11;57576.56;;;-144.78;84.12
55994;BME280;67425;52.126;20.638;2023-02-20T12:27:02;57574.50;;;-144.78;82.98
55994;BME280;67425;52.126;20.638;2023-02-20T12:29:37;57568.25;;;-144.78;82.26
55994;BME280;67425;52.126;20.638;2023-02-20T12:32:25;57530.88;;;-144.78;82.03
55994;BME280;67425;52.126;20.638;2023-02-20T12:46:33;57495.56;;;-144.78;81.12
55994;BME280;67425;52.126;20.638;2023-02-20T12:51:56;57518.41;;;-144.78;79.68
55994;BME280;67425;52.126;20.638;2023-02-20T12:54:39;57530.88;;;-144.78;81.06
55994;BME280;67425;52.126;20.638;2023-02-20T12:57:15;57532.97;;;-144.78;79.33
55994;BME280;67425;52.126;20.638;2023-02-20T13:00:00;57541.25;;;-144.78;79.36
55994;BME280;67425;52.126;20.638;2023-02-20T13:02:36;57522.56;;;-144.78;79.51
55994;BME280;67425;52.126;20.638;2023-02-20T13:05:03;57518.41;;;-144.78;78.48
55994;BME280;67425;52.126;20.638;2023-02-20T13:07:39;57512.19;;;-144.78;77.70
55994;BME280;67425;52.126;20.638;2023-02-20T13:10:14;57537.09;;;-144.78;79.35
55994;BME280;67425;52.126;20.638;2023-02-20T13:12:40;57526.72;;;-144.78;77.82
55994;BME280;67425;52.126;20.638;2023-02-20T13:15:18;57514.25;;;-144.78;79.07
55994;BME280;67425;52.126;20.638;2023-02-20T13:20:26;57549.56;;;-144.78;79.05
55994;BME280;67425;52.126;20.638;2023-02-20T13:23:04;57485.19;;;-144.78;78.31
55994;BME280;67425;52.126;20.638;2023-02-20T13:30:44;57497.66;;;-144.78;75.28
55994;BME280;67425;52.126;20.638;2023-02-20T13:33:30;57495.56;;;-144.78;75.94
55994;BME280;67425;52.126;20.638;2023-02-20T13:35:56;57485.19;;;-144.78;75.58
55994;BME280;67425;52.126;20.638;2023-02-20T13:38:24;57470.66;;;-144.78;75.43
55994;BME280;67425;52.126;20.638;2023-02-20T13:53:41;57470.66;;;-144.78;73.67
55994;BME280;67425;52.126;20.638;2023-02-20T13:56:18;57468.56;;;-144.78;73.33
55994;BME280;67425;52.126;20.638;2023-02-20T13:58:45;57468.56;;;-144.78;73.76
55994;BME280;67425;52.126;20.638;2023-02-20T14:01:11;57462.34;;;-144.78;73.35
55994;BME280;67425;52.126;20.638;2023-02-20T14:03:36;57456.13;;;-144.78;74.37
55994;BME280;67425;52.126;20.638;2023-02-20T14:06:06;57493.50;;;-144.78;75.86
55994;BME280;67425;52.126;20.638;2023-02-20T14:08:37;57499.72;;;-144.78;75.54
55994;BME280;67425;52.126;20.638;2023-02-20T14:11:08;57478.97;;;-144.78;74.68
55994;BME280;67425;52.126;20.638;2023-02-20T14:13:35;57472.72;;;-144.78;73.86
55994;BME280;67425;52.126;20.638;2023-02-20T14:16:02;57474.81;;;-144.78;74.70
55994;BME280;67425;52.126;20.638;2023-02-20T14:18:30;57458.19;;;-144.78;72.84
55994;BME280;67425;52.126;20.638;2023-02-20T14:21:16;57464.41;;;-144.78;72.94
55994;BME280;67425;52.126;20.638;2023-02-20T14:23:42;57470.66;;;-144.78;73.20
55994;BME280;67425;52.126;20.638;2023-02-20T14:28:49;57441.59;;;-144.78;72.32
55994;BME280;67425;52.126;20.638;2023-02-20T14:34:01;57445.72;;;-144.78;71.84